createdAt,value
2023-03-31T00:02:13.472Z,76.00
2023-03-31T00:04:52.683Z,76.00
2023-03-31T00:07:24.226Z,75.60
2023-03-31T00:10:00.945Z,76.00
2023-03-31T00:12:37.405Z,75.80
2023-03-31T00:15:04.516Z,75.90
2023-03-31T00:17:33.305Z,76.00
2023-03-31T00:20:08.750Z,75.70
2023-03-31T00:22:38.535Z,75.40
2023-03-31T00:25:06.674Z,76.00
2023-03-31T00:27:33.354Z,76.60
2023-03-31T00:30:00.193Z,77.00
2023-03-31T00:32:26.935Z,77.40
2023-03-31T00:34:53.653Z,77.30
2023-03-31T00:37:20.348Z,76.70
2023-03-31T00:39:47.132Z,76.10
2023-03-31T00:42:13.965Z,76.20
2023-03-31T00:45:15.042Z,76.20
2023-03-31T00:47:52.427Z,75.40
2023-03-31T00:50:30.090Z,75.90
2023-03-31T00:53:01.349Z,77.00
2023-03-31T00:55:33.599Z,76.70
2023-03-31T00:58:02.013Z,76.60
2023-03-31T01:00:30.266Z,75.90
2023-03-31T01:02:59.697Z,76.00
2023-03-31T01:05:32.377Z,75.90
2023-03-31T01:08:00.566Z,75.40
2023-03-31T01:10:28.428Z,75.00
2023-03-31T01:12:57.414Z,75.20
2023-03-31T01:15:24.225Z,75.30
2023-03-31T01:17:55.878Z,76.30
2023-03-31T01:21:03.831Z,76.30
2023-03-31T01:23:56.978Z,76.00
2023-03-31T01:26:38.886Z,76.10
2023-03-31T01:29:33.096Z,76.80
2023-03-31T01:32:05.844Z,76.90
2023-03-31T01:34:50.699Z,77.90
2023-03-31T01:37:47.665Z,77.90
2023-03-31T01:40:32.480Z,77.70
2023-03-31T01:43:18.323Z,77.50
2023-03-31T01:45:54.101Z,77.30
2023-03-31T01:48:46.222Z,77.40
2023-03-31T01:51:19.108Z,77.70
2023-03-31T01:54:09.548Z,77.30
2023-03-31T01:56:41.125Z,77.10
2023-03-31T01:59:16.344Z,77.70
2023-03-31T02:01:51.888Z,78.30
2023-03-31T02:04:23.707Z,78.40
2023-03-31T02:06:59.296Z,78.30
2023-03-31T02:09:31.502Z,78.00
2023-03-31T02:11:59.331Z,78.60
2023-03-31T02:14:31.103Z,78.30
2023-03-31T02:17:02.219Z,77.30
2023-03-31T02:19:33.772Z,76.80
2023-03-31T02:22:04.450Z,76.40
2023-03-31T02:24:32.992Z,75.60
2023-03-31T02:27:24.761Z,74.70
2023-03-31T02:29:52.104Z,74.40
2023-03-31T02:32:32.620Z,75.00
2023-03-31T02:35:01.091Z,74.90
2023-03-31T02:37:29.662Z,75.10
2023-03-31T02:39:59.977Z,76.60
2023-03-31T02:42:27.198Z,78.10
2023-03-31T02:44:53.947Z,79.10
2023-03-31T02:47:22.011Z,80.50
2023-03-31T02:49:56.982Z,80.70
2023-03-31T02:52:36.462Z,80.90
2023-03-31T02:55:31.647Z,81.20
2023-03-31T02:58:23.886Z,82.90
2023-03-31T03:00:53.810Z,84.30
2023-03-31T03:03:55.257Z,84.80
2023-03-31T03:06:37.781Z,85.70
2023-03-31T03:09:32.622Z,86.20
2023-03-31T03:12:11.225Z,88.00
2023-03-31T03:15:00.427Z,89.40
2023-03-31T03:17:35.225Z,89.50
2023-03-31T03:20:08.338Z,90.40
2023-03-31T03:22:37.264Z,91.10
2023-03-31T03:25:06.026Z,91.90
2023-03-31T03:27:32.838Z,92.40
2023-03-31T03:29:59.600Z,92.90
2023-03-31T03:32:26.579Z,93.30
2023-03-31T03:34:53.363Z,93.60
2023-03-31T03:37:20.371Z,93.90
2023-03-31T03:39:47.136Z,94.50
2023-03-31T03:42:14.104Z,94.50
2023-03-31T03:44:41.113Z,95.10
2023-03-31T03:47:08.127Z,95.40
2023-03-31T03:49:34.853Z,95.90
2023-03-31T03:52:01.587Z,96.10
2023-03-31T03:54:28.576Z,96.30
2023-03-31T03:56:55.471Z,96.30
2023-03-31T03:59:22.374Z,95.80
2023-03-31T04:01:49.475Z,96.00
2023-03-31T04:04:16.400Z,96.40
2023-03-31T04:06:43.153Z,97.20
2023-03-31T04:09:09.911Z,98.00
2023-03-31T04:11:36.742Z,98.20
2023-03-31T04:14:03.772Z,98.30
2023-03-31T04:16:30.892Z,98.40
2023-03-31T04:18:59.124Z,98.40
2023-03-31T04:21:26.332Z,98.60
2023-03-31T04:24:04.752Z,98.60
2023-03-31T04:26:43.148Z,98.40
2023-03-31T04:29:16.698Z,98.60
2023-03-31T04:31:44.218Z,98.60
2023-03-31T04:34:13.752Z,98.80
2023-03-31T04:36:48.689Z,98.80
2023-03-31T04:39:30.870Z,98.80
2023-03-31T04:42:01.466Z,98.60
2023-03-31T04:44:28.756Z,98.30
2023-03-31T04:46:56.227Z,98.10
2023-03-31T04:49:23.146Z,98.00
2023-03-31T04:51:50.351Z,97.80
2023-03-31T04:54:17.280Z,97.80
2023-03-31T04:56:44.218Z,98.00
2023-03-31T04:59:11.238Z,97.70
2023-03-31T05:01:38.321Z,97.60
2023-03-31T05:04:05.831Z,97.60
2023-03-31T05:06:33.410Z,97.70
2023-03-31T05:09:00.443Z,98.00
2023-03-31T05:11:27.593Z,98.10
2023-03-31T05:13:54.607Z,97.80
2023-03-31T05:16:21.598Z,97.80
2023-03-31T05:18:48.360Z,97.90
2023-03-31T05:21:17.909Z,98.10
2023-03-31T05:23:45.991Z,98.50
2023-03-31T05:26:13.775Z,99.00
2023-03-31T05:28:41.390Z,99.10
2023-03-31T05:31:09.572Z,99.20
2023-03-31T05:33:40.397Z,98.90
2023-03-31T05:36:12.131Z,98.90
2023-03-31T05:38:40.206Z,98.60
2023-03-31T05:41:09.597Z,99.00
2023-03-31T05:43:37.156Z,98.80
2023-03-31T05:46:04.876Z,98.60
2023-03-31T05:48:32.156Z,98.80
2023-03-31T05:50:59.857Z,98.20
2023-03-31T05:53:27.578Z,97.60
2023-03-31T05:56:02.110Z,97.60
2023-03-31T05:58:29.655Z,97.50
2023-03-31T06:01:19.495Z,97.20
2023-03-31T06:03:47.164Z,96.70
2023-03-31T06:06:15.074Z,96.20
2023-03-31T06:08:45.759Z,96.20
2023-03-31T06:11:15.518Z,95.60
2023-03-31T06:13:43.105Z,95.10
2023-03-31T06:16:12.462Z,94.90
2023-03-31T06:18:39.874Z,94.20
2023-03-31T06:21:06.824Z,93.80
2023-03-31T06:23:34.570Z,93.00
2023-03-31T06:26:07.146Z,93.00
2023-03-31T06:28:35.404Z,93.30
2023-03-31T06:31:07.787Z,93.50
2023-03-31T06:33:35.733Z,93.00
2023-03-31T06:36:05.726Z,93.60
2023-03-31T06:38:34.553Z,93.10
2023-03-31T06:41:01.462Z,93.00
2023-03-31T06:43:28.974Z,93.50
2023-03-31T06:45:56.171Z,93.70
2023-03-31T06:48:25.182Z,93.80
2023-03-31T06:50:54.096Z,94.80
2023-03-31T06:53:22.177Z,95.20
2023-03-31T06:55:49.007Z,95.70
2023-03-31T06:58:16.121Z,96.60
2023-03-31T07:00:43.063Z,97.20
2023-03-31T07:03:09.913Z,98.10
2023-03-31T07:05:36.774Z,98.90
2023-03-31T07:08:03.731Z,99.60
2023-03-31T07:10:33.492Z,99.90
2023-03-31T07:13:00.412Z,99.90
2023-03-31T07:15:28.652Z,99.90
2023-03-31T07:18:02.062Z,99.90
2023-03-31T07:20:30.582Z,99.90
2023-03-31T07:22:57.522Z,99.90
2023-03-31T07:25:24.378Z,99.90
2023-03-31T07:27:51.176Z,99.90
2023-03-31T07:30:20.101Z,99.90
2023-03-31T07:32:48.453Z,99.90
2023-03-31T07:35:16.106Z,99.90
2023-03-31T07:37:45.262Z,99.90
2023-03-31T07:40:15.898Z,99.90
2023-03-31T07:42:43.109Z,99.90
2023-03-31T07:45:10.525Z,99.90
2023-03-31T07:47:38.571Z,99.90
2023-03-31T07:50:06.371Z,99.90
2023-03-31T07:52:33.126Z,99.90
2023-03-31T07:54:59.859Z,99.90
2023-03-31T07:57:26.733Z,99.90
2023-03-31T07:59:53.444Z,99.80
2023-03-31T08:02:20.580Z,99.90
2023-03-31T08:04:47.726Z,99.30
2023-03-31T08:07:16.628Z,98.00
2023-03-31T08:09:45.701Z,97.10
2023-03-31T08:12:14.138Z,96.30
2023-03-31T08:14:41.786Z,95.10
2023-03-31T08:17:10.367Z,94.00
2023-03-31T08:19:37.184Z,92.40
2023-03-31T08:22:04.276Z,91.80
2023-03-31T08:24:31.226Z,91.10
2023-03-31T08:26:57.978Z,91.10
2023-03-31T08:29:24.767Z,90.90
2023-03-31T08:31:51.789Z,91.30
2023-03-31T08:34:18.562Z,91.80
2023-03-31T08:36:45.389Z,92.40
2023-03-31T08:39:13.015Z,93.70
2023-03-31T08:42:27.211Z,93.10
2023-03-31T08:45:21.204Z,91.20
2023-03-31T08:47:52.335Z,87.20
2023-03-31T08:50:25.491Z,80.80
2023-03-31T08:53:07.519Z,79.70
2023-03-31T08:55:55.453Z,81.10
2023-03-31T08:58:31.872Z,76.90
2023-03-31T09:01:24.361Z,75.80
2023-03-31T09:04:03.681Z,77.90
2023-03-31T09:07:12.472Z,74.50
2023-03-31T09:09:58.003Z,76.70
2023-03-31T09:12:28.311Z,71.70
2023-03-31T09:15:02.263Z,64.10
2023-03-31T09:17:39.122Z,65.80
2023-03-31T09:20:30.999Z,61.00
2023-03-31T09:23:17.360Z,60.80
2023-03-31T09:25:44.815Z,57.10
2023-03-31T09:28:19.520Z,56.20
2023-03-31T09:30:51.181Z,55.10
2023-03-31T09:33:22.645Z,57.30
2023-03-31T09:35:51.441Z,56.60
2023-03-31T09:38:18.990Z,55.30
2023-03-31T09:40:45.854Z,56.30
2023-03-31T09:43:27.519Z,54.90
2023-03-31T09:46:08.671Z,51.70
2023-03-31T09:48:50.721Z,51.40
2023-03-31T09:51:24.613Z,50.00
2023-03-31T09:53:56.573Z,51.40
2023-03-31T09:56:44.507Z,48.70
2023-03-31T09:59:23.665Z,48.80
2023-03-31T10:01:53.585Z,48.10
2023-03-31T10:04:24.303Z,45.50
2023-03-31T10:06:54.738Z,48.30
2023-03-31T10:09:26.493Z,46.20
2023-03-31T10:12:08.210Z,46.80
2023-03-31T10:14:45.685Z,45.90
2023-03-31T10:17:27.892Z,45.40
2023-03-31T10:20:05.931Z,43.90
2023-03-31T10:22:33.339Z,43.70
2023-03-31T10:25:29.380Z,43.80
2023-03-31T10:27:57.257Z,42.60
2023-03-31T10:30:30.512Z,42.30
2023-03-31T10:33:00.014Z,41.80
2023-03-31T10:35:35.396Z,42.00
2023-03-31T10:38:11.068Z,41.40
2023-03-31T10:40:40.126Z,40.80
2023-03-31T10:43:17.289Z,38.90
2023-03-31T10:45:56.563Z,38.60
2023-03-31T10:48:34.362Z,37.80
2023-03-31T10:51:25.672Z,36.80
2023-03-31T10:53:54.827Z,36.30
2023-03-31T10:56:27.519Z,37.30
2023-03-31T10:59:12.998Z,36.50
2023-03-31T11:02:07.398Z,36.10
2023-03-31T11:04:56.903Z,36.10
2023-03-31T11:07:41.180Z,36.10
2023-03-31T11:10:23.956Z,36.60
2023-03-31T11:13:13.471Z,36.90
2023-03-31T11:15:52.177Z,36.70
2023-03-31T11:18:45.387Z,36.80
2023-03-31T11:22:13.326Z,36.70
2023-03-31T11:24:58.835Z,35.80
2023-03-31T11:27:49.742Z,35.60
2023-03-31T11:30:24.915Z,35.40
2023-03-31T11:33:22.621Z,35.60
2023-03-31T11:36:26.347Z,35.80
2023-03-31T11:39:25.041Z,36.90
2023-03-31T11:42:05.813Z,37.30
2023-03-31T11:44:42.813Z,37.90
2023-03-31T11:47:15.570Z,37.60
2023-03-31T11:49:56.036Z,36.80
2023-03-31T11:52:30.674Z,36.60
2023-03-31T11:55:15.604Z,36.40
2023-03-31T11:57:48.046Z,36.40
2023-03-31T12:00:32.698Z,35.30
2023-03-31T12:03:02.713Z,35.40
2023-03-31T12:05:33.112Z,35.70
2023-03-31T12:08:15.765Z,35.40
2023-03-31T12:10:58.796Z,35.20
2023-03-31T12:13:34.406Z,35.10
2023-03-31T12:16:05.955Z,34.40
2023-03-31T12:18:40.036Z,35.00
2023-03-31T12:21:07.823Z,35.00
2023-03-31T12:23:43.202Z,33.70
2023-03-31T12:26:31.627Z,34.20
2023-03-31T12:29:01.720Z,33.70
2023-03-31T12:31:30.523Z,33.30
2023-03-31T12:34:02.977Z,32.50
2023-03-31T12:36:46.780Z,33.10
2023-03-31T12:39:31.809Z,32.90
2023-03-31T12:42:23.474Z,34.00
2023-03-31T12:45:10.195Z,34.90
2023-03-31T12:47:55.659Z,35.40
2023-03-31T12:50:41.004Z,38.00
2023-03-31T12:53:30.325Z,38.20
2023-03-31T12:55:58.459Z,39.40
2023-03-31T12:58:26.666Z,39.60
2023-03-31T13:01:24.738Z,38.30
2023-03-31T13:04:20.124Z,40.80
2023-03-31T13:06:54.067Z,42.20
2023-03-31T13:09:41.970Z,42.90
2023-03-31T13:12:14.744Z,43.00
2023-03-31T13:14:44.624Z,42.40
2023-03-31T13:17:23.680Z,43.10
2023-03-31T13:19:51.709Z,44.50
2023-03-31T13:22:38.022Z,43.70
2023-03-31T13:25:27.273Z,43.80
2023-03-31T13:27:54.113Z,43.10
2023-03-31T13:30:36.212Z,42.90
2023-03-31T13:33:10.805Z,41.90
2023-03-31T13:35:39.833Z,42.70
2023-03-31T13:38:15.440Z,42.20
2023-03-31T13:41:18.708Z,41.90
2023-03-31T13:43:55.741Z,41.70
2023-03-31T13:46:43.031Z,41.40
2023-03-31T13:49:47.143Z,40.30
2023-03-31T13:52:14.217Z,40.60
2023-03-31T13:55:33.060Z,39.50
2023-03-31T13:58:29.947Z,40.10
2023-03-31T14:01:39.119Z,39.70
2023-03-31T14:04:30.910Z,39.20
2023-03-31T14:07:11.212Z,38.50
2023-03-31T14:09:44.038Z,39.20
2023-03-31T14:12:34.589Z,39.20
2023-03-31T14:15:02.156Z,39.50
2023-03-31T14:17:31.857Z,39.60
2023-03-31T14:20:14.100Z,39.90
2023-03-31T14:23:11.684Z,38.90
2023-03-31T14:25:55.187Z,36.90
2023-03-31T14:28:54.207Z,36.60
2023-03-31T14:31:35.558Z,37.10
2023-03-31T14:34:42.591Z,37.60
2023-03-31T14:37:22.823Z,37.00
2023-03-31T14:39:56.459Z,39.40
2023-03-31T14:42:42.978Z,40.90
2023-03-31T14:45:17.953Z,42.00
2023-03-31T14:48:13.890Z,48.10
2023-03-31T14:50:46.590Z,55.80
2023-03-31T14:53:17.992Z,57.80
2023-03-31T14:55:57.982Z,56.20
2023-03-31T14:58:34.946Z,57.60
2023-03-31T15:01:04.881Z,55.80
2023-03-31T15:03:34.049Z,55.00
2023-03-31T15:06:03.410Z,54.30
2023-03-31T15:08:31.876Z,48.90
2023-03-31T15:11:12.016Z,51.20
2023-03-31T15:14:00.697Z,49.60
2023-03-31T15:16:42.704Z,49.60
2023-03-31T15:19:26.310Z,47.40
2023-03-31T15:22:01.968Z,45.70
2023-03-31T15:24:29.650Z,42.80
2023-03-31T15:27:37.191Z,43.70
2023-03-31T15:30:07.723Z,41.10
2023-03-31T15:32:40.143Z,40.30
2023-03-31T15:37:47.902Z,39.00
2023-03-31T15:40:28.290Z,39.20
2023-03-31T15:43:13.946Z,41.70
2023-03-31T15:45:52.904Z,43.30
2023-03-31T15:48:23.659Z,43.80
2023-03-31T15:50:51.821Z,43.50
2023-03-31T15:53:29.575Z,43.20
2023-03-31T15:56:00.338Z,43.40
2023-03-31T15:58:47.450Z,43.90
2023-03-31T16:01:16.305Z,44.60
2023-03-31T16:03:45.757Z,44.40
2023-03-31T16:06:24.022Z,44.60
2023-03-31T16:09:00.507Z,44.30
2023-03-31T16:11:58.100Z,45.00
2023-03-31T16:14:43.358Z,45.80
2023-03-31T16:17:20.354Z,46.10
2023-03-31T16:19:55.719Z,46.00
2023-03-31T16:22:27.993Z,46.30
2023-03-31T16:24:54.943Z,47.30
2023-03-31T16:27:23.120Z,47.80
2023-03-31T16:29:49.858Z,49.10
2023-03-31T16:32:19.462Z,50.10
2023-03-31T16:34:56.796Z,51.40
2023-03-31T16:37:24.336Z,52.30
2023-03-31T16:39:51.741Z,52.50
2023-03-31T16:42:19.789Z,52.30
2023-03-31T16:44:52.900Z,52.80
2023-03-31T16:47:35.301Z,53.00
2023-03-31T16:52:53.892Z,56.20
2023-03-31T16:55:20.646Z,56.30
2023-03-31T16:57:48.469Z,55.80
2023-03-31T17:00:15.715Z,55.70
2023-03-31T17:02:42.804Z,55.10
2023-03-31T17:05:13.303Z,55.10
2023-03-31T17:07:40.816Z,56.30
2023-03-31T17:10:08.322Z,55.50
2023-03-31T17:12:35.310Z,56.10
2023-03-31T17:15:02.047Z,56.90
2023-03-31T17:17:30.125Z,57.40
2023-03-31T17:19:57.485Z,58.80
2023-03-31T17:22:24.240Z,59.90
2023-03-31T17:24:56.948Z,60.40
2023-03-31T17:27:27.461Z,60.40
2023-03-31T17:29:54.826Z,60.30
2023-03-31T17:32:22.561Z,61.10
2023-03-31T17:34:50.397Z,61.50
2023-03-31T17:37:18.583Z,61.40
2023-03-31T17:39:46.077Z,61.40
2023-03-31T17:42:14.061Z,61.40
2023-03-31T17:44:41.387Z,60.90
2023-03-31T17:47:08.351Z,60.40
2023-03-31T17:49:35.054Z,59.70
2023-03-31T17:52:01.857Z,59.70
2023-03-31T17:54:28.662Z,60.20
2023-03-31T17:56:56.477Z,60.60
2023-03-31T17:59:24.023Z,60.30
2023-03-31T18:01:51.323Z,60.00
2023-03-31T18:04:18.444Z,60.70
2023-03-31T18:06:47.441Z,61.50
2023-03-31T18:09:15.095Z,60.40
2023-03-31T18:11:41.824Z,60.00
2023-03-31T18:14:09.144Z,60.00
2023-03-31T18:16:37.039Z,59.00
2023-03-31T18:19:03.911Z,59.60
2023-03-31T18:21:31.123Z,59.10
2023-03-31T18:23:58.010Z,59.30
2023-03-31T18:26:27.131Z,59.10
2023-03-31T18:28:53.950Z,60.10
2023-03-31T18:31:22.323Z,60.70
2023-03-31T18:33:49.294Z,61.00
2023-03-31T18:36:20.391Z,60.70
2023-03-31T18:38:48.389Z,61.30
2023-03-31T18:41:15.946Z,61.50
2023-03-31T18:43:42.714Z,62.10
2023-03-31T18:46:10.620Z,62.60
2023-03-31T18:48:38.507Z,63.00
2023-03-31T18:51:05.582Z,62.30
2023-03-31T18:53:32.480Z,61.50
2023-03-31T18:55:59.663Z,62.70
2023-03-31T18:58:30.171Z,63.20
2023-03-31T19:00:58.055Z,63.40
2023-03-31T19:03:26.709Z,63.20
2023-03-31T19:06:07.339Z,63.00
2023-03-31T19:08:34.152Z,63.40
2023-03-31T19:11:07.419Z,62.90
2023-03-31T19:13:34.419Z,63.00
2023-03-31T19:16:01.663Z,62.60
2023-03-31T19:18:31.925Z,62.50
2023-03-31T19:21:00.176Z,63.00
2023-03-31T19:23:27.151Z,62.70
2023-03-31T19:25:55.131Z,62.40
2023-03-31T19:28:24.344Z,62.20
2023-03-31T19:30:52.648Z,62.00
2023-03-31T19:33:20.066Z,61.30
2023-03-31T19:35:48.394Z,61.20
2023-03-31T19:38:15.337Z,60.40
2023-03-31T19:40:42.891Z,60.60
2023-03-31T19:43:21.558Z,60.30
2023-03-31T19:45:49.287Z,60.20
2023-03-31T19:48:16.779Z,60.10
2023-03-31T19:50:51.723Z,60.40
2023-03-31T19:53:19.618Z,60.30
2023-03-31T19:56:01.539Z,60.50
2023-03-31T19:58:29.453Z,60.00
2023-03-31T20:00:57.738Z,59.10
2023-03-31T20:03:26.322Z,59.00
2023-03-31T20:06:01.477Z,58.60
2023-03-31T20:08:28.217Z,58.50
2023-03-31T20:11:03.876Z,58.00
2023-03-31T20:13:32.576Z,57.30
2023-03-31T20:16:04.704Z,56.90
2023-03-31T20:18:31.705Z,56.30
2023-03-31T20:21:10.568Z,56.60
2023-03-31T20:23:38.997Z,56.10
2023-03-31T20:26:08.958Z,55.30
2023-03-31T20:28:36.995Z,55.10
2023-03-31T20:31:11.756Z,54.60
2023-03-31T20:33:39.388Z,54.90
2023-03-31T20:36:17.682Z,54.10
2023-03-31T20:38:46.551Z,54.00
2023-03-31T20:41:13.724Z,54.10
2023-03-31T20:43:41.102Z,53.80
2023-03-31T20:46:09.108Z,53.20
2023-03-31T20:48:40.472Z,53.10
2023-03-31T20:51:13.518Z,52.90
2023-03-31T20:53:43.391Z,52.90
2023-03-31T20:56:12.211Z,52.90
2023-03-31T20:58:40.031Z,52.70
2023-03-31T21:01:08.322Z,52.70
2023-03-31T21:03:35.213Z,52.50
2023-03-31T21:06:11.326Z,52.90
2023-03-31T21:08:39.563Z,52.80
2023-03-31T21:11:06.578Z,52.90
2023-03-31T21:13:33.845Z,52.90
2023-03-31T21:16:01.152Z,52.70
2023-03-31T21:18:29.495Z,52.80
2023-03-31T21:20:59.099Z,52.70
2023-03-31T21:23:27.325Z,52.80
2023-03-31T21:25:56.780Z,52.80
2023-03-31T21:28:26.673Z,52.80
2023-03-31T21:30:55.936Z,53.10
2023-03-31T21:33:24.356Z,53.30
2023-03-31T21:35:52.269Z,53.10
2023-03-31T21:38:19.903Z,52.90
2023-03-31T21:40:47.832Z,52.70
2023-03-31T21:43:15.511Z,52.80
2023-03-31T21:45:42.344Z,53.00
2023-03-31T21:48:10.672Z,53.10
2023-03-31T21:50:39.937Z,53.50
2023-03-31T21:53:08.365Z,54.10
2023-03-31T21:55:37.458Z,53.60
2023-03-31T21:58:05.585Z,53.90
2023-03-31T22:00:32.891Z,53.80
2023-03-31T22:03:16.236Z,53.80
2023-03-31T22:05:46.673Z,53.90
2023-03-31T22:08:13.641Z,54.20
2023-03-31T22:10:40.451Z,54.10
2023-03-31T22:13:07.247Z,54.20
2023-03-31T22:15:34.202Z,54.50
2023-03-31T22:18:01.709Z,54.40
2023-03-31T22:20:28.476Z,55.00
2023-03-31T22:22:55.496Z,55.20
2023-03-31T22:25:22.208Z,55.20
2023-03-31T22:27:48.941Z,55.50
2023-03-31T22:30:15.772Z,55.70
2023-03-31T22:32:42.507Z,56.10
2023-03-31T22:35:09.592Z,56.60
2023-03-31T22:37:36.789Z,56.90
2023-03-31T22:40:04.110Z,57.20
2023-03-31T22:42:30.861Z,57.60
2023-03-31T22:44:57.547Z,58.00
2023-03-31T22:47:24.335Z,59.00
2023-03-31T22:49:51.131Z,59.40
2023-03-31T22:52:17.891Z,59.60
2023-03-31T22:54:44.601Z,60.00
2023-03-31T22:57:11.955Z,60.00
2023-03-31T22:59:39.071Z,60.00
2023-03-31T23:02:06.141Z,60.30
2023-03-31T23:04:32.912Z,60.50
2023-03-31T23:06:59.762Z,60.30
2023-03-31T23:09:27.063Z,60.50
2023-03-31T23:11:53.807Z,60.00
2023-03-31T23:14:20.539Z,59.00
2023-03-31T23:16:47.341Z,58.80
2023-03-31T23:19:14.085Z,58.70
2023-03-31T23:21:41.012Z,58.70
2023-03-31T23:24:07.812Z,58.70
2023-03-31T23:26:34.871Z,58.70
2023-03-31T23:29:02.432Z,58.70
2023-03-31T23:31:31.953Z,59.10
2023-03-31T23:34:00.404Z,59.20
2023-03-31T23:36:27.863Z,59.30
2023-03-31T23:38:56.210Z,59.90
2023-03-31T23:41:24.195Z,60.10
2023-03-31T23:43:51.269Z,59.90
2023-03-31T23:46:18.506Z,60.70
2023-03-31T23:48:45.696Z,60.70
2023-03-31T23:51:13.296Z,60.80
2023-03-31T23:53:40.082Z,60.60
2023-03-31T23:56:12.326Z,60.40
2023-03-31T23:58:40.660Z,60.30
